This is the latest recevied weather packets stored in our database for station/object N5ZP. If no packets are shown the sender has not sent any weather packets the latest 10 day(s).
| Time | Temp. | Humidity | Pressure | Rain* | Wind** | Luminosity | Snow |
|---|---|---|---|---|---|---|---|
| 1777819028 | 25.56° C | 49% | 1018.3 hPa | 0 mm | - | 405 W/m² | - |
| 1777818726 | 25° C | 51% | 1018.5 hPa | 0 mm | - | 389 W/m² | - |
| 1777818119 | 23.89° C | 53% | 1018.4 hPa | 0 mm | - | 355 W/m² | - |
| 1777817513 | 22.78° C | 54% | 1018.3 hPa | 0 mm | - | 327 W/m² | - |
| 1777816907 | 22.78° C | 55% | 1018.3 hPa | 0 mm | - | 297 W/m² | - |
| 1777815696 | 20° C | 61% | 1018.1 hPa | 0 mm | - | 236 W/m² | - |
| 1777815393 | 20.56° C | 63% | 1018.1 hPa | 0 mm | - | 222 W/m² | - |
| 1777814482 | 19.44° C | 61% | 1018 hPa | 0 mm | - | 179 W/m² | - |
| 1777814180 | 18.89° C | 63% | 1017.9 hPa | 0 mm | - | 166 W/m² | - |
| 1777812969 | 17.22° C | 66% | 1017.9 hPa | 0 mm | - | 116 W/m² | - |
| 1777812061 | 15° C | 71% | 1018 hPa | 0 mm | - | 75 W/m² | - |
| 1777811759 | 13.89° C | 76% | 1017.8 hPa | 0 mm | - | 60 W/m² | - |
| 1777811455 | 13.33° C | 82% | 1017.9 hPa | 0 mm | - | 51 W/m² | - |
| 1777810546 | 10.56° C | 92% | 1017.6 hPa | 0 mm | - | 31 W/m² | - |
| 1777809938 | 9.44° C | 94% | 1017.4 hPa | 0 mm | - | 20 W/m² | - |
| 1777809637 | 9.44° C | 93% | 1017.4 hPa | 0 mm | - | 14 W/m² | - |
| 1777807520 | 9.44° C | 92% | 1017.3 hPa | 0 mm | - | 0 W/m² | - |
| 1777802368 | 12.22° C | 81% | 1017 hPa | 0 mm | - | 0 W/m² | - |
| 1777801157 | 12.78° C | 76% | 1017 hPa | 0 mm | - | 0 W/m² | - |
| 1777800854 | 12.78° C | 75% | 1017.1 hPa | 0 mm | - | 0 W/m² | - |
| 1777800548 | 12.78° C | 75% | 1016.9 hPa | 0 mm | - | 0 W/m² | - |
| 1777800245 | 13.33° C | 75% | 1016.9 hPa | 0 mm | - | 0 W/m² | - |
| 1777799941 | 13.33° C | 74% | 1016.9 hPa | 0 mm | - | 0 W/m² | - |
| 1777799638 | 12.78° C | 75% | 1017 hPa | 0 mm | - | 0 W/m² | - |
| 1777799334 | 12.78° C | 75% | 1017 hPa | 0 mm | - | 0 W/m² | - |
* Rain latest hour (hover to see other rain measurements)
** Current wind speed in m/s (hover to see current wind gust speed)